Terminal Aerodrome Forecast
Issued by NWS Springfield, MO

Home | Current Version | Previous Version | Text Only | Print | Product List | Glossary On
Versions: 1 2 3 4 5 6 7 8 9 10 11 12 13 14 15 16 17 18 19 20 21 22 23 24 25 26
138
FTUS43 KSGF 200520
TAFSGF
TAF
KSGF 200520Z 2006/2106 18014G20KT P6SM BKN250 WS020/23055KT
     FM200800 19015G20KT P6SM BKN025 OVC250 WS020/23055KT
     FM201000 20013G21KT P6SM BKN015 WS020/23055KT
     FM201200 19012KT P6SM BKN008 WS020/22050KT
     FM201800 19016KT P6SM OVC015 WS020/21045KT
     FM202200 18012KT P6SM BKN045 WS020/20040KT
     FM210300 17011G20KT P6SM BKN008=

USA.gov is the U.S. government's official web portal to all federal, state and local government web resources and services.